sensor_id;sensor_type;location;lat;lon;timestamp;P1;durP1;ratioP1;P2;durP2;ratioP2
53271;SDS011;39160;48.580;7.756;2022-11-15T00:03:45;4.78;;;2.72;;
53271;SDS011;39160;48.580;7.756;2022-11-15T00:08:36;6.35;;;2.50;;
53271;SDS011;39160;48.580;7.756;2022-11-15T00:13:27;7.70;;;3.38;;
53271;SDS011;39160;48.580;7.756;2022-11-15T00:18:18;8.43;;;3.33;;
53271;SDS011;39160;48.580;7.756;2022-11-15T00:23:09;6.22;;;3.55;;
53271;SDS011;39160;48.580;7.756;2022-11-15T00:28:00;5.90;;;3.20;;
53271;SDS011;39160;48.580;7.756;2022-11-15T00:32:51;5.10;;;3.80;;
53271;SDS011;39160;48.580;7.756;2022-11-15T00:37:42;7.97;;;3.10;;
53271;SDS011;39160;48.580;7.756;2022-11-15T00:42:33;5.05;;;3.22;;
53271;SDS011;39160;48.580;7.756;2022-11-15T00:47:23;7.10;;;2.92;;
53271;SDS011;39160;48.580;7.756;2022-11-15T00:52:14;5.40;;;3.47;;
53271;SDS011;39160;48.580;7.756;2022-11-15T00:57:04;4.13;;;2.95;;
53271;SDS011;39160;48.580;7.756;2022-11-15T01:01:55;4.70;;;3.05;;
53271;SDS011;39160;48.580;7.756;2022-11-15T01:06:46;5.45;;;3.17;;
53271;SDS011;39160;48.580;7.756;2022-11-15T01:11:37;8.15;;;2.75;;
53271;SDS011;39160;48.580;7.756;2022-11-15T01:16:27;5.63;;;2.70;;
53271;SDS011;39160;48.580;7.756;2022-11-15T01:21:18;10.27;;;2.80;;
53271;SDS011;39160;48.580;7.756;2022-11-15T01:26:11;5.97;;;3.30;;
53271;SDS011;39160;48.580;7.756;2022-11-15T01:31:04;4.82;;;2.92;;
53271;SDS011;39160;48.580;7.756;2022-11-15T01:35:56;6.95;;;3.25;;
53271;SDS011;39160;48.580;7.756;2022-11-15T01:40:47;5.07;;;2.85;;
53271;SDS011;39160;48.580;7.756;2022-11-15T01:45:37;6.15;;;3.13;;
53271;SDS011;39160;48.580;7.756;2022-11-15T01:50:29;6.47;;;3.45;;
53271;SDS011;39160;48.580;7.756;2022-11-15T01:55:23;6.75;;;3.38;;
53271;SDS011;39160;48.580;7.756;2022-11-15T02:00:16;6.05;;;3.13;;
53271;SDS011;39160;48.580;7.756;2022-11-15T02:05:07;5.07;;;2.80;;
53271;SDS011;39160;48.580;7.756;2022-11-15T02:10:06;5.53;;;3.15;;
53271;SDS011;39160;48.580;7.756;2022-11-15T02:14:59;6.95;;;3.17;;
53271;SDS011;39160;48.580;7.756;2022-11-15T02:25:55;4.22;;;2.90;;
53271;SDS011;39160;48.580;7.756;2022-11-15T02:41:06;5.18;;;2.75;;
53271;SDS011;39160;48.580;7.756;2022-11-15T02:46:04;4.57;;;3.17;;
53271;SDS011;39160;48.580;7.756;2022-11-15T02:51:04;3.67;;;3.13;;
53271;SDS011;39160;48.580;7.756;2022-11-15T02:55:56;6.13;;;4.45;;
53271;SDS011;39160;48.580;7.756;2022-11-15T03:11:25;6.82;;;3.25;;
53271;SDS011;39160;48.580;7.756;2022-11-15T03:16:20;4.43;;;3.08;;
53271;SDS011;39160;48.580;7.756;2022-11-15T03:21:31;3.50;;;2.22;;
53271;SDS011;39160;48.580;7.756;2022-11-15T03:26:24;7.88;;;3.13;;
53271;SDS011;39160;48.580;7.756;2022-11-15T03:31:15;4.35;;;2.97;;
53271;SDS011;39160;48.580;7.756;2022-11-15T03:36:27;5.53;;;2.78;;
53271;SDS011;39160;48.580;7.756;2022-11-15T03:41:34;4.10;;;2.45;;
53271;SDS011;39160;48.580;7.756;2022-11-15T03:46:32;4.15;;;2.38;;
53271;SDS011;39160;48.580;7.756;2022-11-15T03:51:28;4.85;;;3.15;;
53271;SDS011;39160;48.580;7.756;2022-11-15T03:56:19;5.45;;;3.10;;
53271;SDS011;39160;48.580;7.756;2022-11-15T04:01:10;4.55;;;2.42;;
53271;SDS011;39160;48.580;7.756;2022-11-15T04:06:00;4.40;;;2.50;;
53271;SDS011;39160;48.580;7.756;2022-11-15T04:10:51;5.90;;;2.67;;
53271;SDS011;39160;48.580;7.756;2022-11-15T04:15:42;3.78;;;2.38;;
53271;SDS011;39160;48.580;7.756;2022-11-15T04:20:32;4.38;;;2.50;;
53271;SDS011;39160;48.580;7.756;2022-11-15T04:25:41;4.93;;;2.80;;
53271;SDS011;39160;48.580;7.756;2022-11-15T04:30:33;4.50;;;2.40;;
53271;SDS011;39160;48.580;7.756;2022-11-15T04:35:24;3.58;;;2.50;;
53271;SDS011;39160;48.580;7.756;2022-11-15T04:40:15;5.70;;;2.92;;
53271;SDS011;39160;48.580;7.756;2022-11-15T04:45:05;3.58;;;2.33;;
53271;SDS011;39160;48.580;7.756;2022-11-15T04:49:56;3.90;;;2.72;;
53271;SDS011;39160;48.580;7.756;2022-11-15T04:54:47;4.07;;;2.10;;
53271;SDS011;39160;48.580;7.756;2022-11-15T04:59:38;4.03;;;2.33;;
53271;SDS011;39160;48.580;7.756;2022-11-15T05:04:28;3.58;;;2.53;;
53271;SDS011;39160;48.580;7.756;2022-11-15T05:09:19;3.78;;;2.10;;
53271;SDS011;39160;48.580;7.756;2022-11-15T05:14:10;4.82;;;2.05;;
53271;SDS011;39160;48.580;7.756;2022-11-15T05:19:01;3.78;;;2.00;;
53271;SDS011;39160;48.580;7.756;2022-11-15T05:23:52;3.67;;;1.77;;
53271;SDS011;39160;48.580;7.756;2022-11-15T05:28:43;4.20;;;2.53;;
53271;SDS011;39160;48.580;7.756;2022-11-15T05:33:34;7.03;;;2.47;;
53271;SDS011;39160;48.580;7.756;2022-11-15T05:38:27;4.03;;;2.17;;
53271;SDS011;39160;48.580;7.756;2022-11-15T05:43:18;3.85;;;1.70;;
53271;SDS011;39160;48.580;7.756;2022-11-15T05:48:09;5.90;;;2.22;;
53271;SDS011;39160;48.580;7.756;2022-11-15T05:53:01;4.72;;;2.22;;
53271;SDS011;39160;48.580;7.756;2022-11-15T05:57:52;4.07;;;2.13;;
53271;SDS011;39160;48.580;7.756;2022-11-15T06:02:42;2.67;;;1.85;;
53271;SDS011;39160;48.580;7.756;2022-11-15T06:07:33;5.10;;;2.50;;
53271;SDS011;39160;48.580;7.756;2022-11-15T06:12:24;3.63;;;2.22;;
53271;SDS011;39160;48.580;7.756;2022-11-15T06:17:14;4.82;;;2.90;;
53271;SDS011;39160;48.580;7.756;2022-11-15T06:22:05;3.03;;;2.30;;
53271;SDS011;39160;48.580;7.756;2022-11-15T06:26:55;4.47;;;2.20;;
53271;SDS011;39160;48.580;7.756;2022-11-15T06:31:47;3.53;;;2.40;;
53271;SDS011;39160;48.580;7.756;2022-11-15T06:36:37;3.05;;;2.45;;
53271;SDS011;39160;48.580;7.756;2022-11-15T06:41:28;3.72;;;2.30;;
53271;SDS011;39160;48.580;7.756;2022-11-15T06:46:19;4.35;;;2.58;;
53271;SDS011;39160;48.580;7.756;2022-11-15T06:51:09;2.72;;;2.22;;
53271;SDS011;39160;48.580;7.756;2022-11-15T06:56:00;5.47;;;2.47;;
53271;SDS011;39160;48.580;7.756;2022-11-15T07:00:52;5.22;;;3.20;;
53271;SDS011;39160;48.580;7.756;2022-11-15T07:05:51;3.92;;;2.22;;
53271;SDS011;39160;48.580;7.756;2022-11-15T07:10:43;2.63;;;2.10;;
53271;SDS011;39160;48.580;7.756;2022-11-15T07:15:34;3.33;;;2.47;;
53271;SDS011;39160;48.580;7.756;2022-11-15T07:20:24;5.13;;;2.53;;
53271;SDS011;39160;48.580;7.756;2022-11-15T07:25:15;3.63;;;2.13;;
53271;SDS011;39160;48.580;7.756;2022-11-15T07:30:06;4.75;;;1.88;;
53271;SDS011;39160;48.580;7.756;2022-11-15T07:34:57;3.95;;;2.10;;
53271;SDS011;39160;48.580;7.756;2022-11-15T07:39:47;4.95;;;2.17;;
53271;SDS011;39160;48.580;7.756;2022-11-15T07:44:38;3.88;;;2.50;;
53271;SDS011;39160;48.580;7.756;2022-11-15T07:49:29;6.88;;;2.42;;
53271;SDS011;39160;48.580;7.756;2022-11-15T07:54:19;4.38;;;1.80;;
53271;SDS011;39160;48.580;7.756;2022-11-15T07:59:10;4.90;;;2.85;;
53271;SDS011;39160;48.580;7.756;2022-11-15T08:04:00;3.95;;;2.20;;
53271;SDS011;39160;48.580;7.756;2022-11-15T08:08:51;3.47;;;2.40;;
53271;SDS011;39160;48.580;7.756;2022-11-15T08:13:42;2.83;;;2.00;;
53271;SDS011;39160;48.580;7.756;2022-11-15T08:18:32;3.92;;;2.17;;
53271;SDS011;39160;48.580;7.756;2022-11-15T08:23:23;5.85;;;2.15;;
53271;SDS011;39160;48.580;7.756;2022-11-15T08:28:15;3.22;;;1.70;;
53271;SDS011;39160;48.580;7.756;2022-11-15T08:33:09;4.53;;;2.70;;
53271;SDS011;39160;48.580;7.756;2022-11-15T08:38:01;2.67;;;1.83;;
53271;SDS011;39160;48.580;7.756;2022-11-15T08:42:52;4.63;;;2.00;;
53271;SDS011;39160;48.580;7.756;2022-11-15T08:47:42;2.70;;;1.80;;
53271;SDS011;39160;48.580;7.756;2022-11-15T08:52:33;4.15;;;1.95;;
53271;SDS011;39160;48.580;7.756;2022-11-15T08:57:24;3.70;;;2.33;;
53271;SDS011;39160;48.580;7.756;2022-11-15T09:02:15;2.85;;;1.83;;
53271;SDS011;39160;48.580;7.756;2022-11-15T09:07:06;4.03;;;1.98;;
53271;SDS011;39160;48.580;7.756;2022-11-15T09:11:57;4.10;;;1.73;;
53271;SDS011;39160;48.580;7.756;2022-11-15T09:16:47;3.10;;;1.73;;
53271;SDS011;39160;48.580;7.756;2022-11-15T09:21:38;3.45;;;1.55;;
53271;SDS011;39160;48.580;7.756;2022-11-15T09:26:31;2.92;;;1.92;;
53271;SDS011;39160;48.580;7.756;2022-11-15T09:31:22;2.72;;;1.60;;
53271;SDS011;39160;48.580;7.756;2022-11-15T09:36:13;2.67;;;1.70;;
53271;SDS011;39160;48.580;7.756;2022-11-15T09:51:44;4.15;;;2.15;;
53271;SDS011;39160;48.580;7.756;2022-11-15T09:56:39;4.25;;;2.35;;
53271;SDS011;39160;48.580;7.756;2022-11-15T10:06:28;5.63;;;2.33;;
53271;SDS011;39160;48.580;7.756;2022-11-15T10:11:26;4.68;;;2.10;;
53271;SDS011;39160;48.580;7.756;2022-11-15T10:21:17;3.80;;;2.28;;
53271;SDS011;39160;48.580;7.756;2022-11-15T10:26:15;3.10;;;2.17;;
53271;SDS011;39160;48.580;7.756;2022-11-15T10:31:26;2.90;;;2.35;;
53271;SDS011;39160;48.580;7.756;2022-11-15T10:36:19;2.78;;;2.22;;
53271;SDS011;39160;48.580;7.756;2022-11-15T10:41:36;6.05;;;3.90;;
53271;SDS011;39160;48.580;7.756;2022-11-15T10:46:28;4.55;;;2.25;;
53271;SDS011;39160;48.580;7.756;2022-11-15T10:51:22;3.75;;;2.55;;
53271;SDS011;39160;48.580;7.756;2022-11-15T10:56:18;6.32;;;3.08;;
53271;SDS011;39160;48.580;7.756;2022-11-15T11:01:13;4.65;;;2.65;;
53271;SDS011;39160;48.580;7.756;2022-11-15T11:06:10;4.95;;;3.03;;
53271;SDS011;39160;48.580;7.756;2022-11-15T11:11:03;4.93;;;3.28;;
53271;SDS011;39160;48.580;7.756;2022-11-15T11:21:02;7.07;;;3.22;;
53271;SDS011;39160;48.580;7.756;2022-11-15T11:36:44;3.30;;;1.77;;
53271;SDS011;39160;48.580;7.756;2022-11-15T11:41:53;4.07;;;2.20;;
53271;SDS011;39160;48.580;7.756;2022-11-15T11:51:53;3.47;;;2.10;;
53271;SDS011;39160;48.580;7.756;2022-11-15T11:56:58;4.55;;;1.63;;
53271;SDS011;39160;48.580;7.756;2022-11-15T12:01:52;3.17;;;2.00;;
53271;SDS011;39160;48.580;7.756;2022-11-15T12:07:03;4.88;;;1.88;;
53271;SDS011;39160;48.580;7.756;2022-11-15T12:12:15;5.68;;;2.20;;
53271;SDS011;39160;48.580;7.756;2022-11-15T12:17:27;2.25;;;1.40;;
53271;SDS011;39160;48.580;7.756;2022-11-15T12:22:23;2.50;;;1.85;;
53271;SDS011;39160;48.580;7.756;2022-11-15T12:27:31;3.05;;;1.73;;
53271;SDS011;39160;48.580;7.756;2022-11-15T12:32:28;4.95;;;2.33;;
53271;SDS011;39160;48.580;7.756;2022-11-15T12:37:46;4.03;;;2.60;;
53271;SDS011;39160;48.580;7.756;2022-11-15T12:42:40;5.88;;;2.15;;
53271;SDS011;39160;48.580;7.756;2022-11-15T12:47:32;2.35;;;1.48;;
53271;SDS011;39160;48.580;7.756;2022-11-15T12:52:23;2.10;;;1.33;;
53271;SDS011;39160;48.580;7.756;2022-11-15T13:02:16;2.50;;;1.50;;
53271;SDS011;39160;48.580;7.756;2022-11-15T13:22:09;1.95;;;1.50;;
53271;SDS011;39160;48.580;7.756;2022-11-15T13:27:19;3.42;;;1.77;;
53271;SDS011;39160;48.580;7.756;2022-11-15T13:32:12;2.90;;;1.60;;
53271;SDS011;39160;48.580;7.756;2022-11-15T13:37:09;4.93;;;1.75;;
53271;SDS011;39160;48.580;7.756;2022-11-15T13:42:15;1.85;;;1.40;;
53271;SDS011;39160;48.580;7.756;2022-11-15T13:47:14;3.33;;;1.48;;
53271;SDS011;39160;48.580;7.756;2022-11-15T13:52:10;3.58;;;2.25;;
53271;SDS011;39160;48.580;7.756;2022-11-15T14:02:16;2.70;;;1.70;;
53271;SDS011;39160;48.580;7.756;2022-11-15T14:07:19;3.95;;;1.63;;
53271;SDS011;39160;48.580;7.756;2022-11-15T14:17:40;3.10;;;2.03;;
53271;SDS011;39160;48.580;7.756;2022-11-15T14:22:31;3.10;;;1.88;;
53271;SDS011;39160;48.580;7.756;2022-11-15T14:27:25;3.85;;;2.35;;
53271;SDS011;39160;48.580;7.756;2022-11-15T14:32:22;4.07;;;1.67;;
53271;SDS011;39160;48.580;7.756;2022-11-15T14:37:19;2.63;;;1.80;;
53271;SDS011;39160;48.580;7.756;2022-11-15T14:42:14;2.58;;;1.83;;
53271;SDS011;39160;48.580;7.756;2022-11-15T14:47:05;3.35;;;1.60;;
53271;SDS011;39160;48.580;7.756;2022-11-15T14:51:56;2.65;;;1.83;;
53271;SDS011;39160;48.580;7.756;2022-11-15T14:56:47;3.10;;;1.63;;
53271;SDS011;39160;48.580;7.756;2022-11-15T15:01:38;2.65;;;1.95;;
53271;SDS011;39160;48.580;7.756;2022-11-15T15:06:29;7.03;;;3.50;;
53271;SDS011;39160;48.580;7.756;2022-11-15T15:11:21;3.47;;;2.13;;
53271;SDS011;39160;48.580;7.756;2022-11-15T15:16:18;4.43;;;2.13;;
53271;SDS011;39160;48.580;7.756;2022-11-15T15:21:20;2.90;;;2.00;;
53271;SDS011;39160;48.580;7.756;2022-11-15T15:26:13;5.10;;;2.03;;
53271;SDS011;39160;48.580;7.756;2022-11-15T15:31:04;2.70;;;2.17;;
53271;SDS011;39160;48.580;7.756;2022-11-15T15:35:55;4.43;;;2.67;;
53271;SDS011;39160;48.580;7.756;2022-11-15T15:40:46;2.63;;;2.00;;
53271;SDS011;39160;48.580;7.756;2022-11-15T15:45:38;2.70;;;1.67;;
53271;SDS011;39160;48.580;7.756;2022-11-15T15:50:32;4.35;;;1.88;;
53271;SDS011;39160;48.580;7.756;2022-11-15T15:55:23;3.22;;;2.38;;
53271;SDS011;39160;48.580;7.756;2022-11-15T16:00:15;3.60;;;1.73;;
53271;SDS011;39160;48.580;7.756;2022-11-15T16:05:07;3.63;;;2.22;;
53271;SDS011;39160;48.580;7.756;2022-11-15T16:09:58;6.22;;;2.35;;
53271;SDS011;39160;48.580;7.756;2022-11-15T16:14:52;4.53;;;2.45;;
53271;SDS011;39160;48.580;7.756;2022-11-15T16:19:44;5.65;;;1.83;;
53271;SDS011;39160;48.580;7.756;2022-11-15T16:24:35;4.35;;;2.45;;
53271;SDS011;39160;48.580;7.756;2022-11-15T16:29:25;4.57;;;2.55;;
53271;SDS011;39160;48.580;7.756;2022-11-15T16:34:16;5.40;;;2.40;;
53271;SDS011;39160;48.580;7.756;2022-11-15T16:39:10;4.20;;;2.63;;
53271;SDS011;39160;48.580;7.756;2022-11-15T16:44:03;6.22;;;3.00;;
53271;SDS011;39160;48.580;7.756;2022-11-15T16:48:53;7.80;;;2.92;;
53271;SDS011;39160;48.580;7.756;2022-11-15T16:53:44;4.88;;;2.90;;
53271;SDS011;39160;48.580;7.756;2022-11-15T16:58:36;3.72;;;2.35;;
53271;SDS011;39160;48.580;7.756;2022-11-15T17:03:27;7.60;;;2.90;;
53271;SDS011;39160;48.580;7.756;2022-11-15T17:08:18;5.28;;;2.72;;
53271;SDS011;39160;48.580;7.756;2022-11-15T17:13:10;8.13;;;2.72;;
53271;SDS011;39160;48.580;7.756;2022-11-15T17:18:02;4.72;;;3.47;;
53271;SDS011;39160;48.580;7.756;2022-11-15T17:22:53;5.20;;;2.50;;
53271;SDS011;39160;48.580;7.756;2022-11-15T17:27:45;6.72;;;3.10;;
53271;SDS011;39160;48.580;7.756;2022-11-15T17:32:36;7.10;;;3.45;;
53271;SDS011;39160;48.580;7.756;2022-11-15T17:37:27;7.53;;;3.35;;
53271;SDS011;39160;48.580;7.756;2022-11-15T17:42:18;5.22;;;3.20;;
53271;SDS011;39160;48.580;7.756;2022-11-15T17:47:08;4.50;;;3.10;;
53271;SDS011;39160;48.580;7.756;2022-11-15T17:51:59;6.30;;;3.25;;
53271;SDS011;39160;48.580;7.756;2022-11-15T17:56:49;5.20;;;2.80;;
53271;SDS011;39160;48.580;7.756;2022-11-15T18:01:40;5.15;;;1.98;;
53271;SDS011;39160;48.580;7.756;2022-11-15T18:06:32;6.15;;;3.38;;
53271;SDS011;39160;48.580;7.756;2022-11-15T18:11:27;6.35;;;3.00;;
53271;SDS011;39160;48.580;7.756;2022-11-15T18:16:20;9.05;;;3.40;;
53271;SDS011;39160;48.580;7.756;2022-11-15T18:21:19;5.75;;;3.47;;
53271;SDS011;39160;48.580;7.756;2022-11-15T18:31:11;8.35;;;3.78;;
53271;SDS011;39160;48.580;7.756;2022-11-15T18:36:06;4.80;;;3.38;;
53271;SDS011;39160;48.580;7.756;2022-11-15T18:41:06;6.22;;;3.35;;
53271;SDS011;39160;48.580;7.756;2022-11-15T18:46:09;4.60;;;3.85;;
53271;SDS011;39160;48.580;7.756;2022-11-15T18:51:05;6.93;;;4.05;;
53271;SDS011;39160;48.580;7.756;2022-11-15T18:56:02;6.90;;;3.65;;
53271;SDS011;39160;48.580;7.756;2022-11-15T19:01:02;6.47;;;3.55;;
53271;SDS011;39160;48.580;7.756;2022-11-15T19:06:08;5.20;;;3.75;;
53271;SDS011;39160;48.580;7.756;2022-11-15T19:11:02;10.32;;;3.83;;
53271;SDS011;39160;48.580;7.756;2022-11-15T19:16:04;5.80;;;3.72;;
53271;SDS011;39160;48.580;7.756;2022-11-15T19:20:55;5.95;;;4.15;;
53271;SDS011;39160;48.580;7.756;2022-11-15T19:25:53;7.53;;;4.45;;
53271;SDS011;39160;48.580;7.756;2022-11-15T19:30:48;5.95;;;3.92;;
53271;SDS011;39160;48.580;7.756;2022-11-15T19:35:39;6.78;;;3.63;;
53271;SDS011;39160;48.580;7.756;2022-11-15T19:40:31;8.48;;;4.60;;
53271;SDS011;39160;48.580;7.756;2022-11-15T19:45:22;9.20;;;4.38;;
53271;SDS011;39160;48.580;7.756;2022-11-15T19:50:13;7.55;;;4.72;;
53271;SDS011;39160;48.580;7.756;2022-11-15T19:55:04;8.68;;;4.53;;
53271;SDS011;39160;48.580;7.756;2022-11-15T19:59:55;6.90;;;4.20;;
53271;SDS011;39160;48.580;7.756;2022-11-15T20:04:45;7.57;;;4.57;;
53271;SDS011;39160;48.580;7.756;2022-11-15T20:09:36;5.85;;;4.32;;
53271;SDS011;39160;48.580;7.756;2022-11-15T20:14:27;5.25;;;3.90;;
53271;SDS011;39160;48.580;7.756;2022-11-15T20:19:19;7.90;;;4.20;;
53271;SDS011;39160;48.580;7.756;2022-11-15T20:24:11;4.43;;;3.42;;
53271;SDS011;39160;48.580;7.756;2022-11-15T20:29:01;9.20;;;4.22;;
53271;SDS011;39160;48.580;7.756;2022-11-15T20:33:52;6.47;;;3.53;;
53271;SDS011;39160;48.580;7.756;2022-11-15T20:38:43;5.90;;;3.88;;
53271;SDS011;39160;48.580;7.756;2022-11-15T20:43:34;8.15;;;3.83;;
53271;SDS011;39160;48.580;7.756;2022-11-15T20:48:25;7.45;;;4.38;;
53271;SDS011;39160;48.580;7.756;2022-11-15T20:53:16;8.75;;;4.57;;
53271;SDS011;39160;48.580;7.756;2022-11-15T20:58:09;5.93;;;4.47;;
53271;SDS011;39160;48.580;7.756;2022-11-15T21:03:00;4.85;;;3.50;;
53271;SDS011;39160;48.580;7.756;2022-11-15T21:07:55;5.43;;;3.63;;
53271;SDS011;39160;48.580;7.756;2022-11-15T21:12:46;7.15;;;4.03;;
53271;SDS011;39160;48.580;7.756;2022-11-15T21:17:36;6.15;;;3.88;;
53271;SDS011;39160;48.580;7.756;2022-11-15T21:22:27;8.40;;;4.10;;
53271;SDS011;39160;48.580;7.756;2022-11-15T21:27:18;7.15;;;3.95;;
53271;SDS011;39160;48.580;7.756;2022-11-15T21:32:10;5.75;;;3.63;;
53271;SDS011;39160;48.580;7.756;2022-11-15T21:37:01;9.30;;;3.92;;
53271;SDS011;39160;48.580;7.756;2022-11-15T21:41:51;6.70;;;4.28;;
53271;SDS011;39160;48.580;7.756;2022-11-15T21:46:42;6.80;;;4.43;;
53271;SDS011;39160;48.580;7.756;2022-11-15T21:51:33;7.38;;;4.05;;
53271;SDS011;39160;48.580;7.756;2022-11-15T21:56:24;6.00;;;4.18;;
53271;SDS011;39160;48.580;7.756;2022-11-15T22:01:16;6.05;;;3.80;;
53271;SDS011;39160;48.580;7.756;2022-11-15T22:06:25;7.30;;;3.90;;
53271;SDS011;39160;48.580;7.756;2022-11-15T22:11:16;7.32;;;3.63;;
53271;SDS011;39160;48.580;7.756;2022-11-15T22:16:07;6.43;;;3.65;;
53271;SDS011;39160;48.580;7.756;2022-11-15T22:20:59;8.70;;;4.20;;
53271;SDS011;39160;48.580;7.756;2022-11-15T22:25:51;8.00;;;3.78;;
53271;SDS011;39160;48.580;7.756;2022-11-15T22:30:43;6.35;;;3.92;;
53271;SDS011;39160;48.580;7.756;2022-11-15T22:35:35;7.18;;;3.90;;
53271;SDS011;39160;48.580;7.756;2022-11-15T22:40:25;5.38;;;3.95;;
53271;SDS011;39160;48.580;7.756;2022-11-15T22:45:16;6.75;;;3.50;;
53271;SDS011;39160;48.580;7.756;2022-11-15T22:50:07;5.45;;;3.35;;
53271;SDS011;39160;48.580;7.756;2022-11-15T22:54:58;6.45;;;3.42;;
53271;SDS011;39160;48.580;7.756;2022-11-15T22:59:48;5.80;;;2.80;;
53271;SDS011;39160;48.580;7.756;2022-11-15T23:04:39;4.50;;;2.78;;
53271;SDS011;39160;48.580;7.756;2022-11-15T23:09:29;6.82;;;4.10;;
53271;SDS011;39160;48.580;7.756;2022-11-15T23:14:20;5.03;;;3.08;;
53271;SDS011;39160;48.580;7.756;2022-11-15T23:19:11;5.68;;;3.95;;
53271;SDS011;39160;48.580;7.756;2022-11-15T23:24:03;6.57;;;3.80;;
53271;SDS011;39160;48.580;7.756;2022-11-15T23:28:54;7.60;;;4.22;;
53271;SDS011;39160;48.580;7.756;2022-11-15T23:33:45;6.25;;;4.07;;
53271;SDS011;39160;48.580;7.756;2022-11-15T23:38:48;5.72;;;4.05;;
53271;SDS011;39160;48.580;7.756;2022-11-15T23:43:38;6.88;;;3.60;;
53271;SDS011;39160;48.580;7.756;2022-11-15T23:48:29;3.03;;;2.72;;
53271;SDS011;39160;48.580;7.756;2022-11-15T23:53:20;5.28;;;3.22;;
53271;SDS011;39160;48.580;7.756;2022-11-15T23:58:11;5.45;;;2.90;;
